sensor_id;sensor_type;location;lat;lon;timestamp;P1;durP1;ratioP1;P2;durP2;ratioP2
57297;SDS011;43147;50.972;18.210;2023-03-16T00:01:07;53.40;;;20.00;;
57297;SDS011;43147;50.972;18.210;2023-03-16T00:03:32;59.30;;;24.00;;
57297;SDS011;43147;50.972;18.210;2023-03-16T00:05:58;68.30;;;24.80;;
57297;SDS011;43147;50.972;18.210;2023-03-16T00:08:24;93.40;;;29.40;;
57297;SDS011;43147;50.972;18.210;2023-03-16T00:10:49;67.50;;;25.60;;
57297;SDS011;43147;50.972;18.210;2023-03-16T00:13:19;69.40;;;21.80;;
57297;SDS011;43147;50.972;18.210;2023-03-16T00:15:53;50.20;;;22.40;;
57297;SDS011;43147;50.972;18.210;2023-03-16T00:18:20;51.00;;;18.20;;
57297;SDS011;43147;50.972;18.210;2023-03-16T00:20:50;47.70;;;20.00;;
57297;SDS011;43147;50.972;18.210;2023-03-16T00:23:17;50.80;;;21.20;;
57297;SDS011;43147;50.972;18.210;2023-03-16T00:25:43;60.00;;;21.30;;
57297;SDS011;43147;50.972;18.210;2023-03-16T00:28:09;53.00;;;19.40;;
57297;SDS011;43147;50.972;18.210;2023-03-16T00:30:38;63.10;;;19.60;;
57297;SDS011;43147;50.972;18.210;2023-03-16T00:33:03;50.60;;;19.70;;
57297;SDS011;43147;50.972;18.210;2023-03-16T00:35:29;52.80;;;18.10;;
57297;SDS011;43147;50.972;18.210;2023-03-16T00:37:58;72.80;;;26.70;;
57297;SDS011;43147;50.972;18.210;2023-03-16T00:40:24;60.70;;;21.50;;
57297;SDS011;43147;50.972;18.210;2023-03-16T00:42:50;78.00;;;29.40;;
57297;SDS011;43147;50.972;18.210;2023-03-16T00:45:15;90.60;;;32.40;;
57297;SDS011;43147;50.972;18.210;2023-03-16T00:47:41;89.00;;;32.40;;
57297;SDS011;43147;50.972;18.210;2023-03-16T00:50:07;77.40;;;28.90;;
57297;SDS011;43147;50.972;18.210;2023-03-16T00:52:32;92.70;;;33.30;;
57297;SDS011;43147;50.972;18.210;2023-03-16T00:54:59;77.80;;;28.70;;
57297;SDS011;43147;50.972;18.210;2023-03-16T00:57:27;67.30;;;26.20;;
57297;SDS011;43147;50.972;18.210;2023-03-16T00:59:54;70.70;;;28.40;;
57297;SDS011;43147;50.972;18.210;2023-03-16T01:02:20;57.80;;;25.90;;
57297;SDS011;43147;50.972;18.210;2023-03-16T01:04:49;71.80;;;25.10;;
57297;SDS011;43147;50.972;18.210;2023-03-16T01:07:16;58.10;;;21.10;;
57297;SDS011;43147;50.972;18.210;2023-03-16T01:09:42;57.50;;;23.00;;
57297;SDS011;43147;50.972;18.210;2023-03-16T01:12:09;60.30;;;24.70;;
57297;SDS011;43147;50.972;18.210;2023-03-16T01:14:37;64.80;;;25.60;;
57297;SDS011;43147;50.972;18.210;2023-03-16T01:17:03;70.10;;;24.90;;
57297;SDS011;43147;50.972;18.210;2023-03-16T01:19:32;71.30;;;23.70;;
57297;SDS011;43147;50.972;18.210;2023-03-16T01:22:01;50.30;;;21.00;;
57297;SDS011;43147;50.972;18.210;2023-03-16T01:24:28;55.00;;;22.00;;
57297;SDS011;43147;50.972;18.210;2023-03-16T01:26:54;52.10;;;21.90;;
57297;SDS011;43147;50.972;18.210;2023-03-16T01:29:20;52.80;;;21.20;;
57297;SDS011;43147;50.972;18.210;2023-03-16T01:31:46;183.30;;;43.40;;
57297;SDS011;43147;50.972;18.210;2023-03-16T01:34:14;165.60;;;43.40;;
57297;SDS011;43147;50.972;18.210;2023-03-16T01:36:43;143.30;;;42.00;;
57297;SDS011;43147;50.972;18.210;2023-03-16T01:39:11;165.90;;;45.10;;
57297;SDS011;43147;50.972;18.210;2023-03-16T01:41:38;147.50;;;40.40;;
57297;SDS011;43147;50.972;18.210;2023-03-16T01:44:05;142.70;;;34.10;;
57297;SDS011;43147;50.972;18.210;2023-03-16T01:46:31;115.90;;;30.60;;
57297;SDS011;43147;50.972;18.210;2023-03-16T01:48:58;79.60;;;25.00;;
57297;SDS011;43147;50.972;18.210;2023-03-16T01:57:03;51.40;;;18.70;;
57297;SDS011;43147;50.972;18.210;2023-03-16T01:59:32;57.40;;;18.80;;
57297;SDS011;43147;50.972;18.210;2023-03-16T02:02:20;44.80;;;16.60;;
57297;SDS011;43147;50.972;18.210;2023-03-16T02:07:39;27.90;;;11.40;;
57297;SDS011;43147;50.972;18.210;2023-03-16T02:10:07;29.50;;;13.20;;
57297;SDS011;43147;50.972;18.210;2023-03-16T02:12:34;33.40;;;14.80;;
57297;SDS011;43147;50.972;18.210;2023-03-16T02:15:00;27.10;;;14.30;;
57297;SDS011;43147;50.972;18.210;2023-03-16T02:17:27;48.10;;;14.60;;
57297;SDS011;43147;50.972;18.210;2023-03-16T02:22:33;35.60;;;14.10;;
57297;SDS011;43147;50.972;18.210;2023-03-16T02:25:00;36.60;;;14.60;;
57297;SDS011;43147;50.972;18.210;2023-03-16T02:30:18;26.30;;;11.90;;
57297;SDS011;43147;50.972;18.210;2023-03-16T02:32:46;27.50;;;12.20;;
57297;SDS011;43147;50.972;18.210;2023-03-16T02:35:15;32.90;;;13.60;;
57297;SDS011;43147;50.972;18.210;2023-03-16T02:37:41;33.40;;;12.80;;
57297;SDS011;43147;50.972;18.210;2023-03-16T02:40:40;32.30;;;14.00;;
57297;SDS011;43147;50.972;18.210;2023-03-16T02:43:14;26.20;;;11.90;;
57297;SDS011;43147;50.972;18.210;2023-03-16T02:45:43;28.70;;;12.40;;
57297;SDS011;43147;50.972;18.210;2023-03-16T02:48:13;42.00;;;14.10;;
57297;SDS011;43147;50.972;18.210;2023-03-16T02:50:46;30.00;;;11.50;;
57297;SDS011;43147;50.972;18.210;2023-03-16T02:53:13;36.00;;;13.30;;
57297;SDS011;43147;50.972;18.210;2023-03-16T02:55:39;28.50;;;13.90;;
57297;SDS011;43147;50.972;18.210;2023-03-16T02:58:05;31.40;;;11.90;;
57297;SDS011;43147;50.972;18.210;2023-03-16T03:00:31;39.50;;;13.70;;
57297;SDS011;43147;50.972;18.210;2023-03-16T03:02:56;35.20;;;12.90;;
57297;SDS011;43147;50.972;18.210;2023-03-16T03:05:22;32.00;;;14.30;;
57297;SDS011;43147;50.972;18.210;2023-03-16T03:07:48;44.30;;;14.70;;
57297;SDS011;43147;50.972;18.210;2023-03-16T03:10:14;52.10;;;16.90;;
57297;SDS011;43147;50.972;18.210;2023-03-16T03:12:40;52.70;;;16.30;;
57297;SDS011;43147;50.972;18.210;2023-03-16T03:15:06;41.40;;;13.80;;
57297;SDS011;43147;50.972;18.210;2023-03-16T03:17:33;31.40;;;13.60;;
57297;SDS011;43147;50.972;18.210;2023-03-16T03:19:59;48.10;;;16.90;;
57297;SDS011;43147;50.972;18.210;2023-03-16T03:22:38;49.60;;;18.40;;
57297;SDS011;43147;50.972;18.210;2023-03-16T03:25:04;52.00;;;18.50;;
57297;SDS011;43147;50.972;18.210;2023-03-16T03:27:30;41.80;;;18.10;;
57297;SDS011;43147;50.972;18.210;2023-03-16T03:29:57;45.20;;;17.20;;
57297;SDS011;43147;50.972;18.210;2023-03-16T03:32:23;51.10;;;20.70;;
57297;SDS011;43147;50.972;18.210;2023-03-16T03:34:48;47.70;;;18.90;;
57297;SDS011;43147;50.972;18.210;2023-03-16T03:37:14;40.50;;;17.30;;
57297;SDS011;43147;50.972;18.210;2023-03-16T03:39:40;47.20;;;18.60;;
57297;SDS011;43147;50.972;18.210;2023-03-16T03:42:06;37.90;;;16.60;;
57297;SDS011;43147;50.972;18.210;2023-03-16T03:44:32;42.70;;;18.20;;
57297;SDS011;43147;50.972;18.210;2023-03-16T03:47:01;39.10;;;18.40;;
57297;SDS011;43147;50.972;18.210;2023-03-16T03:49:28;49.60;;;18.90;;
57297;SDS011;43147;50.972;18.210;2023-03-16T03:51:54;36.20;;;16.60;;
57297;SDS011;43147;50.972;18.210;2023-03-16T03:54:21;40.40;;;18.30;;
57297;SDS011;43147;50.972;18.210;2023-03-16T03:56:46;36.10;;;15.80;;
57297;SDS011;43147;50.972;18.210;2023-03-16T03:59:12;34.80;;;15.00;;
57297;SDS011;43147;50.972;18.210;2023-03-16T04:01:37;38.90;;;16.90;;
57297;SDS011;43147;50.972;18.210;2023-03-16T04:04:03;48.70;;;18.00;;
57297;SDS011;43147;50.972;18.210;2023-03-16T04:06:28;48.30;;;16.70;;
57297;SDS011;43147;50.972;18.210;2023-03-16T04:08:54;37.00;;;16.00;;
57297;SDS011;43147;50.972;18.210;2023-03-16T04:11:20;47.20;;;15.40;;
57297;SDS011;43147;50.972;18.210;2023-03-16T04:13:46;33.80;;;15.30;;
57297;SDS011;43147;50.972;18.210;2023-03-16T04:16:11;30.60;;;15.20;;
57297;SDS011;43147;50.972;18.210;2023-03-16T04:18:40;29.10;;;14.30;;
57297;SDS011;43147;50.972;18.210;2023-03-16T04:21:07;37.60;;;15.20;;
57297;SDS011;43147;50.972;18.210;2023-03-16T04:23:40;40.00;;;15.10;;
57297;SDS011;43147;50.972;18.210;2023-03-16T04:26:06;31.00;;;13.70;;
57297;SDS011;43147;50.972;18.210;2023-03-16T04:28:32;41.70;;;15.40;;
57297;SDS011;43147;50.972;18.210;2023-03-16T04:31:08;25.60;;;12.80;;
57297;SDS011;43147;50.972;18.210;2023-03-16T04:33:35;39.00;;;12.70;;
57297;SDS011;43147;50.972;18.210;2023-03-16T04:36:03;36.20;;;15.80;;
57297;SDS011;43147;50.972;18.210;2023-03-16T04:38:29;39.70;;;16.60;;
57297;SDS011;43147;50.972;18.210;2023-03-16T04:40:59;43.00;;;16.30;;
57297;SDS011;43147;50.972;18.210;2023-03-16T04:43:26;34.60;;;13.50;;
57297;SDS011;43147;50.972;18.210;2023-03-16T04:45:52;29.00;;;13.90;;
57297;SDS011;43147;50.972;18.210;2023-03-16T04:48:18;30.00;;;13.10;;
57297;SDS011;43147;50.972;18.210;2023-03-16T04:50:43;28.50;;;12.90;;
57297;SDS011;43147;50.972;18.210;2023-03-16T04:53:09;36.50;;;15.30;;
57297;SDS011;43147;50.972;18.210;2023-03-16T04:55:35;32.30;;;13.70;;
57297;SDS011;43147;50.972;18.210;2023-03-16T04:58:00;34.40;;;15.20;;
57297;SDS011;43147;50.972;18.210;2023-03-16T05:00:26;34.20;;;15.70;;
57297;SDS011;43147;50.972;18.210;2023-03-16T05:02:52;33.00;;;14.40;;
57297;SDS011;43147;50.972;18.210;2023-03-16T05:05:18;42.00;;;12.10;;
57297;SDS011;43147;50.972;18.210;2023-03-16T05:07:44;31.90;;;13.00;;
57297;SDS011;43147;50.972;18.210;2023-03-16T05:10:10;28.40;;;13.80;;
57297;SDS011;43147;50.972;18.210;2023-03-16T05:12:37;46.80;;;16.30;;
57297;SDS011;43147;50.972;18.210;2023-03-16T05:15:03;29.60;;;13.30;;
57297;SDS011;43147;50.972;18.210;2023-03-16T05:17:29;34.80;;;15.80;;
57297;SDS011;43147;50.972;18.210;2023-03-16T05:19:55;157.60;;;47.30;;
57297;SDS011;43147;50.972;18.210;2023-03-16T05:22:21;122.20;;;42.60;;
57297;SDS011;43147;50.972;18.210;2023-03-16T05:24:46;77.20;;;30.30;;
57297;SDS011;43147;50.972;18.210;2023-03-16T05:27:12;62.90;;;20.80;;
57297;SDS011;43147;50.972;18.210;2023-03-16T05:29:37;41.80;;;19.40;;
57297;SDS011;43147;50.972;18.210;2023-03-16T05:32:03;45.60;;;18.80;;
57297;SDS011;43147;50.972;18.210;2023-03-16T05:34:30;38.70;;;17.70;;
57297;SDS011;43147;50.972;18.210;2023-03-16T05:36:56;55.10;;;20.90;;
57297;SDS011;43147;50.972;18.210;2023-03-16T05:39:22;43.40;;;19.20;;
57297;SDS011;43147;50.972;18.210;2023-03-16T05:41:48;59.70;;;19.90;;
57297;SDS011;43147;50.972;18.210;2023-03-16T05:44:14;45.40;;;18.80;;
57297;SDS011;43147;50.972;18.210;2023-03-16T05:46:40;45.60;;;20.50;;
57297;SDS011;43147;50.972;18.210;2023-03-16T05:49:05;67.80;;;21.80;;
57297;SDS011;43147;50.972;18.210;2023-03-16T05:51:31;50.70;;;20.00;;
57297;SDS011;43147;50.972;18.210;2023-03-16T05:53:57;48.90;;;19.40;;
57297;SDS011;43147;50.972;18.210;2023-03-16T05:56:23;45.70;;;19.90;;
57297;SDS011;43147;50.972;18.210;2023-03-16T05:58:50;54.00;;;20.70;;
57297;SDS011;43147;50.972;18.210;2023-03-16T06:01:17;51.60;;;20.50;;
57297;SDS011;43147;50.972;18.210;2023-03-16T06:03:45;55.70;;;20.90;;
57297;SDS011;43147;50.972;18.210;2023-03-16T06:06:11;58.70;;;22.10;;
57297;SDS011;43147;50.972;18.210;2023-03-16T06:08:37;68.50;;;22.00;;
57297;SDS011;43147;50.972;18.210;2023-03-16T06:11:03;63.00;;;23.50;;
57297;SDS011;43147;50.972;18.210;2023-03-16T06:13:29;59.20;;;22.60;;
57297;SDS011;43147;50.972;18.210;2023-03-16T06:15:54;76.50;;;28.50;;
57297;SDS011;43147;50.972;18.210;2023-03-16T06:18:20;103.10;;;38.50;;
57297;SDS011;43147;50.972;18.210;2023-03-16T06:20:46;82.10;;;38.60;;
57297;SDS011;43147;50.972;18.210;2023-03-16T06:23:12;66.70;;;33.70;;
57297;SDS011;43147;50.972;18.210;2023-03-16T06:25:38;44.70;;;25.60;;
57297;SDS011;43147;50.972;18.210;2023-03-16T06:28:04;42.40;;;27.50;;
57297;SDS011;43147;50.972;18.210;2023-03-16T06:30:30;37.20;;;24.30;;
57297;SDS011;43147;50.972;18.210;2023-03-16T06:32:56;32.50;;;22.60;;
57297;SDS011;43147;50.972;18.210;2023-03-16T06:35:24;39.20;;;20.60;;
57297;SDS011;43147;50.972;18.210;2023-03-16T06:37:50;28.30;;;18.30;;
57297;SDS011;43147;50.972;18.210;2023-03-16T06:40:16;30.60;;;18.10;;
57297;SDS011;43147;50.972;18.210;2023-03-16T06:42:42;35.70;;;18.30;;
57297;SDS011;43147;50.972;18.210;2023-03-16T06:45:08;42.90;;;21.10;;
57297;SDS011;43147;50.972;18.210;2023-03-16T06:47:35;37.70;;;20.60;;
57297;SDS011;43147;50.972;18.210;2023-03-16T06:50:02;40.20;;;20.30;;
57297;SDS011;43147;50.972;18.210;2023-03-16T06:52:28;31.90;;;18.80;;
57297;SDS011;43147;50.972;18.210;2023-03-16T06:54:54;31.70;;;16.30;;
57297;SDS011;43147;50.972;18.210;2023-03-16T06:57:20;28.90;;;16.10;;
57297;SDS011;43147;50.972;18.210;2023-03-16T06:59:48;22.10;;;13.10;;
57297;SDS011;43147;50.972;18.210;2023-03-16T07:02:13;22.70;;;13.50;;
57297;SDS011;43147;50.972;18.210;2023-03-16T07:04:41;21.20;;;13.30;;
57297;SDS011;43147;50.972;18.210;2023-03-16T07:07:07;22.10;;;12.70;;
57297;SDS011;43147;50.972;18.210;2023-03-16T07:09:34;23.60;;;13.70;;
57297;SDS011;43147;50.972;18.210;2023-03-16T07:12:00;16.10;;;12.00;;
57297;SDS011;43147;50.972;18.210;2023-03-16T07:14:26;19.50;;;11.20;;
57297;SDS011;43147;50.972;18.210;2023-03-16T07:16:51;20.90;;;13.30;;
57297;SDS011;43147;50.972;18.210;2023-03-16T07:19:17;16.30;;;11.40;;
57297;SDS011;43147;50.972;18.210;2023-03-16T07:21:43;19.90;;;12.00;;
57297;SDS011;43147;50.972;18.210;2023-03-16T07:24:09;19.20;;;12.70;;
57297;SDS011;43147;50.972;18.210;2023-03-16T07:26:35;19.70;;;11.90;;
57297;SDS011;43147;50.972;18.210;2023-03-16T07:29:02;13.50;;;8.60;;
57297;SDS011;43147;50.972;18.210;2023-03-16T07:31:30;18.10;;;11.50;;
57297;SDS011;43147;50.972;18.210;2023-03-16T07:33:57;17.40;;;9.70;;
57297;SDS011;43147;50.972;18.210;2023-03-16T07:36:23;17.40;;;10.00;;
57297;SDS011;43147;50.972;18.210;2023-03-16T07:38:48;18.60;;;9.90;;
57297;SDS011;43147;50.972;18.210;2023-03-16T07:41:14;19.40;;;11.70;;
57297;SDS011;43147;50.972;18.210;2023-03-16T07:43:40;24.10;;;10.10;;
57297;SDS011;43147;50.972;18.210;2023-03-16T07:46:06;21.40;;;9.60;;
57297;SDS011;43147;50.972;18.210;2023-03-16T07:48:31;15.90;;;8.60;;
57297;SDS011;43147;50.972;18.210;2023-03-16T07:50:57;15.90;;;8.70;;
57297;SDS011;43147;50.972;18.210;2023-03-16T07:53:22;13.40;;;9.00;;
57297;SDS011;43147;50.972;18.210;2023-03-16T07:55:48;15.90;;;8.40;;
57297;SDS011;43147;50.972;18.210;2023-03-16T07:58:13;10.50;;;6.20;;
57297;SDS011;43147;50.972;18.210;2023-03-16T08:00:39;15.90;;;7.50;;
57297;SDS011;43147;50.972;18.210;2023-03-16T08:03:06;14.40;;;8.10;;
57297;SDS011;43147;50.972;18.210;2023-03-16T08:05:33;16.40;;;9.20;;
57297;SDS011;43147;50.972;18.210;2023-03-16T08:07:58;11.80;;;7.70;;
57297;SDS011;43147;50.972;18.210;2023-03-16T08:10:26;13.60;;;7.00;;
57297;SDS011;43147;50.972;18.210;2023-03-16T08:12:52;13.10;;;8.80;;
57297;SDS011;43147;50.972;18.210;2023-03-16T08:15:18;15.00;;;7.50;;
57297;SDS011;43147;50.972;18.210;2023-03-16T08:17:44;14.00;;;8.70;;
57297;SDS011;43147;50.972;18.210;2023-03-16T08:20:10;10.80;;;6.80;;
57297;SDS011;43147;50.972;18.210;2023-03-16T08:22:39;10.40;;;6.60;;
57297;SDS011;43147;50.972;18.210;2023-03-16T08:25:06;8.60;;;6.00;;
57297;SDS011;43147;50.972;18.210;2023-03-16T08:27:35;10.40;;;6.40;;
57297;SDS011;43147;50.972;18.210;2023-03-16T08:30:03;14.70;;;7.30;;
57297;SDS011;43147;50.972;18.210;2023-03-16T08:32:30;12.40;;;7.60;;
57297;SDS011;43147;50.972;18.210;2023-03-16T08:34:56;12.70;;;6.70;;
57297;SDS011;43147;50.972;18.210;2023-03-16T08:37:24;12.90;;;7.50;;
57297;SDS011;43147;50.972;18.210;2023-03-16T08:39:51;9.30;;;6.20;;
57297;SDS011;43147;50.972;18.210;2023-03-16T08:42:18;14.20;;;6.50;;
57297;SDS011;43147;50.972;18.210;2023-03-16T08:44:45;10.30;;;6.80;;
57297;SDS011;43147;50.972;18.210;2023-03-16T08:47:14;13.40;;;8.00;;
57297;SDS011;43147;50.972;18.210;2023-03-16T08:49:41;16.00;;;8.50;;
57297;SDS011;43147;50.972;18.210;2023-03-16T08:52:06;13.30;;;6.20;;
57297;SDS011;43147;50.972;18.210;2023-03-16T08:54:37;12.80;;;6.50;;
57297;SDS011;43147;50.972;18.210;2023-03-16T08:57:03;13.10;;;6.20;;
57297;SDS011;43147;50.972;18.210;2023-03-16T08:59:29;11.20;;;6.70;;
57297;SDS011;43147;50.972;18.210;2023-03-16T09:01:55;13.40;;;6.20;;
57297;SDS011;43147;50.972;18.210;2023-03-16T09:04:21;10.70;;;5.50;;
57297;SDS011;43147;50.972;18.210;2023-03-16T09:06:48;15.00;;;7.10;;
57297;SDS011;43147;50.972;18.210;2023-03-16T09:09:16;10.20;;;6.50;;
57297;SDS011;43147;50.972;18.210;2023-03-16T09:11:42;12.10;;;6.20;;
57297;SDS011;43147;50.972;18.210;2023-03-16T09:14:09;12.60;;;5.30;;
57297;SDS011;43147;50.972;18.210;2023-03-16T09:16:38;12.30;;;5.80;;
57297;SDS011;43147;50.972;18.210;2023-03-16T09:19:04;10.60;;;5.50;;
57297;SDS011;43147;50.972;18.210;2023-03-16T09:21:30;8.90;;;4.30;;
57297;SDS011;43147;50.972;18.210;2023-03-16T09:23:56;11.40;;;4.40;;
57297;SDS011;43147;50.972;18.210;2023-03-16T09:26:22;9.30;;;3.60;;
57297;SDS011;43147;50.972;18.210;2023-03-16T09:28:47;15.80;;;4.10;;
57297;SDS011;43147;50.972;18.210;2023-03-16T09:31:17;9.60;;;3.60;;
57297;SDS011;43147;50.972;18.210;2023-03-16T09:33:44;10.60;;;3.80;;
57297;SDS011;43147;50.972;18.210;2023-03-16T09:36:10;8.70;;;3.90;;
57297;SDS011;43147;50.972;18.210;2023-03-16T09:38:37;7.20;;;3.70;;
57297;SDS011;43147;50.972;18.210;2023-03-16T09:41:08;5.70;;;3.30;;
57297;SDS011;43147;50.972;18.210;2023-03-16T09:46:44;7.50;;;3.60;;
57297;SDS011;43147;50.972;18.210;2023-03-16T09:49:11;8.60;;;3.20;;
57297;SDS011;43147;50.972;18.210;2023-03-16T09:51:46;9.00;;;3.10;;
57297;SDS011;43147;50.972;18.210;2023-03-16T09:59:58;10.20;;;3.20;;
57297;SDS011;43147;50.972;18.210;2023-03-16T10:05:11;6.00;;;3.10;;
57297;SDS011;43147;50.972;18.210;2023-03-16T10:16:00;10.00;;;3.70;;
57297;SDS011;43147;50.972;18.210;2023-03-16T10:18:30;6.20;;;3.20;;
57297;SDS011;43147;50.972;18.210;2023-03-16T10:21:00;6.40;;;3.10;;
57297;SDS011;43147;50.972;18.210;2023-03-16T10:23:27;10.70;;;3.20;;
57297;SDS011;43147;50.972;18.210;2023-03-16T10:25:56;10.90;;;4.00;;
57297;SDS011;43147;50.972;18.210;2023-03-16T10:28:23;5.90;;;3.30;;
57297;SDS011;43147;50.972;18.210;2023-03-16T10:30:54;7.50;;;3.00;;
57297;SDS011;43147;50.972;18.210;2023-03-16T10:33:25;9.10;;;3.50;;
57297;SDS011;43147;50.972;18.210;2023-03-16T10:38:27;10.30;;;4.20;;
57297;SDS011;43147;50.972;18.210;2023-03-16T10:43:56;7.50;;;3.90;;
57297;SDS011;43147;50.972;18.210;2023-03-16T10:46:27;7.80;;;3.20;;
57297;SDS011;43147;50.972;18.210;2023-03-16T10:48:54;7.80;;;4.00;;
57297;SDS011;43147;50.972;18.210;2023-03-16T10:51:31;8.60;;;4.00;;
57297;SDS011;43147;50.972;18.210;2023-03-16T10:54:03;14.40;;;5.30;;
57297;SDS011;43147;50.972;18.210;2023-03-16T10:56:38;8.80;;;3.20;;
57297;SDS011;43147;50.972;18.210;2023-03-16T11:01:42;7.70;;;3.30;;
57297;SDS011;43147;50.972;18.210;2023-03-16T11:04:13;4.70;;;2.60;;
57297;SDS011;43147;50.972;18.210;2023-03-16T11:06:46;8.10;;;3.50;;
57297;SDS011;43147;50.972;18.210;2023-03-16T11:09:19;11.00;;;4.60;;
57297;SDS011;43147;50.972;18.210;2023-03-16T11:11:48;9.90;;;5.30;;
57297;SDS011;43147;50.972;18.210;2023-03-16T11:14:14;14.90;;;5.20;;
57297;SDS011;43147;50.972;18.210;2023-03-16T11:16:45;9.30;;;3.80;;
57297;SDS011;43147;50.972;18.210;2023-03-16T11:22:14;7.60;;;3.00;;
57297;SDS011;43147;50.972;18.210;2023-03-16T11:30:50;9.60;;;4.30;;
57297;SDS011;43147;50.972;18.210;2023-03-16T11:33:20;7.70;;;3.80;;
57297;SDS011;43147;50.972;18.210;2023-03-16T11:41:41;9.70;;;4.30;;
57297;SDS011;43147;50.972;18.210;2023-03-16T11:44:32;7.10;;;3.00;;
57297;SDS011;43147;50.972;18.210;2023-03-16T11:55:33;13.20;;;4.90;;
57297;SDS011;43147;50.972;18.210;2023-03-16T12:05:58;10.20;;;3.80;;
57297;SDS011;43147;50.972;18.210;2023-03-16T12:14:26;6.00;;;2.80;;
57297;SDS011;43147;50.972;18.210;2023-03-16T12:22:15;4.50;;;2.30;;
57297;SDS011;43147;50.972;18.210;2023-03-16T12:24:47;20.70;;;7.70;;
57297;SDS011;43147;50.972;18.210;2023-03-16T12:27:14;15.70;;;6.30;;
57297;SDS011;43147;50.972;18.210;2023-03-16T12:32:54;13.10;;;3.70;;
57297;SDS011;43147;50.972;18.210;2023-03-16T12:35:27;11.60;;;4.60;;
57297;SDS011;43147;50.972;18.210;2023-03-16T12:49:01;9.10;;;4.10;;
57297;SDS011;43147;50.972;18.210;2023-03-16T12:51:33;5.00;;;3.10;;
57297;SDS011;43147;50.972;18.210;2023-03-16T12:54:04;10.50;;;3.90;;
57297;SDS011;43147;50.972;18.210;2023-03-16T12:56:34;11.50;;;3.60;;
57297;SDS011;43147;50.972;18.210;2023-03-16T12:59:02;13.50;;;4.80;;
57297;SDS011;43147;50.972;18.210;2023-03-16T13:01:36;9.70;;;4.10;;
57297;SDS011;43147;50.972;18.210;2023-03-16T13:04:28;12.40;;;5.10;;
57297;SDS011;43147;50.972;18.210;2023-03-16T13:07:02;8.70;;;3.60;;
57297;SDS011;43147;50.972;18.210;2023-03-16T13:09:34;7.40;;;3.80;;
57297;SDS011;43147;50.972;18.210;2023-03-16T13:12:01;10.70;;;3.50;;
57297;SDS011;43147;50.972;18.210;2023-03-16T13:19:42;13.60;;;5.60;;
57297;SDS011;43147;50.972;18.210;2023-03-16T13:24:54;10.90;;;4.40;;
57297;SDS011;43147;50.972;18.210;2023-03-16T13:30:00;6.90;;;3.50;;
57297;SDS011;43147;50.972;18.210;2023-03-16T13:32:37;14.80;;;7.80;;
57297;SDS011;43147;50.972;18.210;2023-03-16T13:35:06;9.10;;;4.60;;
57297;SDS011;43147;50.972;18.210;2023-03-16T13:37:34;12.30;;;5.00;;
57297;SDS011;43147;50.972;18.210;2023-03-16T13:40:00;7.50;;;3.40;;
57297;SDS011;43147;50.972;18.210;2023-03-16T13:42:29;17.00;;;7.10;;
57297;SDS011;43147;50.972;18.210;2023-03-16T13:44:57;8.80;;;4.30;;
57297;SDS011;43147;50.972;18.210;2023-03-16T13:47:26;11.30;;;5.00;;
57297;SDS011;43147;50.972;18.210;2023-03-16T13:49:56;12.30;;;3.90;;
57297;SDS011;43147;50.972;18.210;2023-03-16T13:52:30;15.30;;;4.60;;
57297;SDS011;43147;50.972;18.210;2023-03-16T13:54:59;5.50;;;2.60;;
57297;SDS011;43147;50.972;18.210;2023-03-16T13:57:35;8.10;;;2.20;;
57297;SDS011;43147;50.972;18.210;2023-03-16T14:00:03;9.20;;;2.70;;
57297;SDS011;43147;50.972;18.210;2023-03-16T14:02:40;9.30;;;2.70;;
57297;SDS011;43147;50.972;18.210;2023-03-16T14:05:15;6.60;;;2.90;;
57297;SDS011;43147;50.972;18.210;2023-03-16T14:07:59;7.00;;;3.30;;
57297;SDS011;43147;50.972;18.210;2023-03-16T14:10:28;12.20;;;4.20;;
57297;SDS011;43147;50.972;18.210;2023-03-16T14:13:05;10.00;;;2.80;;
57297;SDS011;43147;50.972;18.210;2023-03-16T14:15:34;7.40;;;2.60;;
57297;SDS011;43147;50.972;18.210;2023-03-16T14:18:18;2.80;;;1.60;;
57297;SDS011;43147;50.972;18.210;2023-03-16T14:23:18;4.30;;;2.30;;
57297;SDS011;43147;50.972;18.210;2023-03-16T14:25:47;4.70;;;2.00;;
57297;SDS011;43147;50.972;18.210;2023-03-16T14:28:14;10.60;;;4.10;;
57297;SDS011;43147;50.972;18.210;2023-03-16T14:30:51;6.30;;;2.10;;
57297;SDS011;43147;50.972;18.210;2023-03-16T14:33:25;5.60;;;2.40;;
57297;SDS011;43147;50.972;18.210;2023-03-16T14:35:55;7.20;;;1.90;;
57297;SDS011;43147;50.972;18.210;2023-03-16T14:38:35;5.90;;;2.80;;
57297;SDS011;43147;50.972;18.210;2023-03-16T14:41:19;5.30;;;2.40;;
57297;SDS011;43147;50.972;18.210;2023-03-16T14:43:52;10.40;;;3.40;;
57297;SDS011;43147;50.972;18.210;2023-03-16T14:46:30;6.60;;;3.00;;
57297;SDS011;43147;50.972;18.210;2023-03-16T14:49:07;4.90;;;2.40;;
57297;SDS011;43147;50.972;18.210;2023-03-16T14:51:42;10.10;;;3.20;;
57297;SDS011;43147;50.972;18.210;2023-03-16T14:54:10;10.60;;;2.90;;
57297;SDS011;43147;50.972;18.210;2023-03-16T14:56:38;6.90;;;1.90;;
57297;SDS011;43147;50.972;18.210;2023-03-16T14:59:04;6.20;;;2.20;;
57297;SDS011;43147;50.972;18.210;2023-03-16T15:01:30;5.20;;;2.60;;
57297;SDS011;43147;50.972;18.210;2023-03-16T15:03:56;6.00;;;2.40;;
57297;SDS011;43147;50.972;18.210;2023-03-16T15:06:22;5.50;;;2.20;;
57297;SDS011;43147;50.972;18.210;2023-03-16T15:08:48;30.90;;;7.10;;
57297;SDS011;43147;50.972;18.210;2023-03-16T15:11:15;30.00;;;6.80;;
57297;SDS011;43147;50.972;18.210;2023-03-16T15:13:48;16.20;;;4.50;;
57297;SDS011;43147;50.972;18.210;2023-03-16T15:16:14;8.70;;;3.30;;
57297;SDS011;43147;50.972;18.210;2023-03-16T15:18:40;9.20;;;2.40;;
57297;SDS011;43147;50.972;18.210;2023-03-16T15:21:10;7.80;;;2.60;;
57297;SDS011;43147;50.972;18.210;2023-03-16T15:23:37;6.30;;;2.50;;
57297;SDS011;43147;50.972;18.210;2023-03-16T15:26:04;12.20;;;4.00;;
57297;SDS011;43147;50.972;18.210;2023-03-16T15:28:31;9.50;;;2.90;;
57297;SDS011;43147;50.972;18.210;2023-03-16T15:30:59;9.80;;;2.40;;
57297;SDS011;43147;50.972;18.210;2023-03-16T15:33:26;6.10;;;1.90;;
57297;SDS011;43147;50.972;18.210;2023-03-16T15:35:53;10.90;;;3.70;;
57297;SDS011;43147;50.972;18.210;2023-03-16T15:38:22;9.90;;;3.70;;
57297;SDS011;43147;50.972;18.210;2023-03-16T15:40:51;26.70;;;7.80;;
57297;SDS011;43147;50.972;18.210;2023-03-16T15:43:18;15.50;;;5.50;;
57297;SDS011;43147;50.972;18.210;2023-03-16T15:45:49;11.50;;;3.80;;
57297;SDS011;43147;50.972;18.210;2023-03-16T15:48:16;14.40;;;4.30;;
57297;SDS011;43147;50.972;18.210;2023-03-16T15:50:49;11.60;;;3.90;;
57297;SDS011;43147;50.972;18.210;2023-03-16T15:53:20;14.00;;;5.30;;
57297;SDS011;43147;50.972;18.210;2023-03-16T15:55:47;8.80;;;3.10;;
57297;SDS011;43147;50.972;18.210;2023-03-16T15:58:20;6.90;;;2.40;;
57297;SDS011;43147;50.972;18.210;2023-03-16T16:00:57;7.80;;;2.10;;
57297;SDS011;43147;50.972;18.210;2023-03-16T16:03:24;8.20;;;1.90;;
57297;SDS011;43147;50.972;18.210;2023-03-16T16:05:50;6.20;;;2.10;;
57297;SDS011;43147;50.972;18.210;2023-03-16T16:08:17;6.10;;;2.40;;
57297;SDS011;43147;50.972;18.210;2023-03-16T16:10:43;7.10;;;2.70;;
57297;SDS011;43147;50.972;18.210;2023-03-16T16:13:16;10.40;;;2.40;;
57297;SDS011;43147;50.972;18.210;2023-03-16T16:15:51;4.50;;;2.30;;